Uraga Maru — JD2163 — position and weather

sailwx.info

Track history (hours):
 
Tides and Currents Weather Stations Pressure Air Temp Water Temp Dewpoint Dewpoint Depression Visibility Wind Speed Wind Dir Waves Ship Positions

Uraga Maru

Last reported at 2015-Jan-27 09:33 UTC. Time now 2015-Jan-27 10:31 UTC.
Position N 35°13' E 139°43'.

Length 40 m; draft 2.8 m.

Type: Tug. MMSI: 431101119.

Date/timePositionNaut miles runAvg speedWind from/ knotsBaromVisibWave heightAir tempDewpointWater temp
2015-Jan-27 09:33N 35°13' E 139°43'0 0.0
2015-Jan-27 08:33N 35°13' E 139°43'0 0.0
2015-Jan-27 07:31N 35°13' E 139°43'3 2.7
2015-Jan-27 06:33N 35°12' E 139°46'9 9.3
2015-Jan-27 05:33N 35°21' E 139°42'7 6.9
2015-Jan-27 04:33N 35°28' E 139°43'0 0.0
2015-Jan-27 03:33N 35°28' E 139°43'0 0.1
2015-Jan-27 02:33N 35°28' E 139°43'0 0.1
2015-Jan-27 01:33N 35°28' E 139°43'5 4.6
2015-Jan-27 00:33N 35°23' E 139°42'10 9.8
2015-Jan-26 23:33N 35°13' E 139°43'0 0.5
2015-Jan-26 22:33N 35°13' E 139°43'0 0.0
2015-Jan-26 21:33N 35°13' E 139°43'0 0.0
2015-Jan-26 20:33N 35°13' E 139°43'0 0.0
2015-Jan-26 19:33N 35°13' E 139°43'0 0.0
2015-Jan-26 18:33N 35°13' E 139°43'0 0.0
2015-Jan-26 17:33N 35°13' E 139°43'0 0.0
2015-Jan-26 16:33N 35°13' E 139°43'0 0.0
2015-Jan-26 15:33N 35°13' E 139°43'0 0.0
2015-Jan-26 14:33N 35°13' E 139°43'0 0.0
2015-Jan-26 13:33N 35°13' E 139°43'0 0.0
2015-Jan-26 12:33N 35°13' E 139°43'0 0.0
2015-Jan-26 11:33N 35°13' E 139°43'0 0.0
2015-Jan-26 10:33N 35°13' E 139°43'0 0.0
2015-Jan-26 09:33N 35°13' E 139°43'0 0.0
2015-Jan-26 08:33N 35°13' E 139°43'0 0.0
2015-Jan-26 07:33N 35°13' E 139°43'0 0.0
2015-Jan-26 06:33N 35°13' E 139°43'0 0.0
2015-Jan-26 05:33N 35°13' E 139°43'0 0.0
2015-Jan-26 04:33N 35°13' E 139°43'0 0.0
2015-Jan-26 03:33N 35°13' E 139°43'0 0.0
2015-Jan-26 02:33N 35°13' E 139°43'0 0.1
2015-Jan-26 01:33N 35°13' E 139°43'5 4.7
2015-Jan-26 00:33N 35°18' E 139°44'1010.1
2015-Jan-25 23:33N 35°28' E 139°45'0 0.2
2015-Jan-25 22:33N 35°28' E 139°45'8 8.0
2015-Jan-25 21:33N 35°20' E 139°43'1110.8
2015-Jan-25 20:33N 35°10' E 139°47'5 5.0
2015-Jan-25 19:33N 35°13' E 139°43'0 0.0
2015-Jan-25 18:33N 35°13' E 139°43'0 0.0
2015-Jan-25 17:30N 35°13' E 139°43'0 0.0
2015-Jan-25 16:33N 35°13' E 139°43'0 0.0
2015-Jan-25 15:33N 35°13' E 139°43'0 0.0
2015-Jan-25 14:33N 35°13' E 139°43'0 0.0
2015-Jan-25 13:33N 35°13' E 139°43'0 0.0
2015-Jan-25 12:31N 35°13' E 139°43'0 0.0
2015-Jan-25 11:25N 35°13' E 139°43'2 2.0
2015-Jan-25 10:33N 35°13' E 139°45'9 9.0
2015-Jan-25 09:33N 35°21' E 139°42'7 6.6
2015-Jan-25 08:32N 35°23' E 139°51'5 5.4
2015-Jan-25 07:34N 35°21' E 139°45'1110.5
2015-Jan-25 06:33N 35°10' E 139°46'1110.8
2015-Jan-25 05:34N 35°20' E 139°42'2 2.0
2015-Jan-25 04:33N 35°19' E 139°44'1010.4
2015-Jan-25 03:33N 35°09' E 139°47'5 5.2
2015-Jan-25 02:33N 35°13' E 139°43'0 0.0
2015-Jan-25 01:33N 35°13' E 139°43'0 0.0
2015-Jan-25 00:33N 35°13' E 139°43'0 0.0
2015-Jan-24 23:33N 35°13' E 139°43'0 0.0
2015-Jan-24 22:33N 35°13' E 139°43'0 0.0
2015-Jan-24 21:33N 35°13' E 139°43'0 0.0
2015-Jan-24 20:33N 35°13' E 139°43'0 0.0
2015-Jan-24 19:31N 35°13' E 139°43'0 0.0
2015-Jan-24 18:33N 35°13' E 139°43'0 0.0
2015-Jan-24 17:33N 35°13' E 139°43'0 0.0
2015-Jan-24 16:33N 35°13' E 139°43'0 0.0
2015-Jan-24 15:33N 35°13' E 139°43'0 0.0
2015-Jan-24 14:33N 35°13' E 139°43'0 0.0
2015-Jan-24 13:33N 35°13' E 139°43'0 0.0
2015-Jan-24 12:33N 35°13' E 139°43'0 0.0
2015-Jan-24 11:33N 35°13' E 139°43'0 0.0
2015-Jan-24 10:33N 35°13' E 139°43'0 0.0
2015-Jan-24 09:33N 35°13' E 139°43'0 0.0
2015-Jan-24 08:33N 35°13' E 139°43'0 0.0
2015-Jan-24 07:33N 35°13' E 139°43'0 0.0
2015-Jan-24 06:33N 35°13' E 139°43'0 0.0
2015-Jan-24 05:33N 35°13' E 139°43'0 0.0
2015-Jan-24 04:33N 35°13' E 139°43'0 0.0
2015-Jan-24 03:33N 35°13' E 139°43'0 0.1
2015-Jan-24 02:33N 35°13' E 139°43'5 4.9
2015-Jan-24 01:33N 35°18' E 139°44'10 9.7
2015-Jan-24 00:33N 35°28' E 139°44'1 0.6
2015-Jan-23 23:33N 35°28' E 139°44'3 2.8
2015-Jan-23 22:33N 35°25' E 139°44'1111.0
2015-Jan-23 21:33N 35°14' E 139°45'7 7.5
2015-Jan-23 20:34N 35°21' E 139°42'4 4.3
2015-Jan-23 19:33N 35°17' E 139°44'4 3.9
2015-Jan-23 18:33N 35°13' E 139°43'0 0.0
2015-Jan-23 17:32N 35°13' E 139°43'0 0.0
2015-Jan-23 16:33N 35°13' E 139°43'0 0.0
2015-Jan-23 15:33N 35°13' E 139°43'0 0.0
2015-Jan-23 14:33N 35°13' E 139°43'0 0.0
2015-Jan-23 13:33N 35°13' E 139°43'0 0.0
2015-Jan-23 12:33N 35°13' E 139°43'2 1.9
2015-Jan-23 11:32N 35°12' E 139°45'8 8.6
2015-Jan-23 10:33N 35°21' E 139°42'3 3.1
2015-Jan-23 09:33N 35°23' E 139°44'0 0.0
2015-Jan-23 08:33N 35°24' E 139°44'5 5.2
2015-Jan-23 07:33N 35°18' E 139°44'7 7.3
2015-Jan-23 06:33N 35°11' E 139°46'3 3.3
2015-Jan-23 05:33N 35°13' E 139°43'0 0.0
2015-Jan-23 04:33N 35°13' E 139°43'8 8.2
2015-Jan-23 03:33N 35°21' E 139°42'1010.4
2015-Jan-23 02:33N 35°12' E 139°47'3 3.0
2015-Jan-23 01:28N 35°13' E 139°43'0 0.1
2015-Jan-23 00:33N 35°13' E 139°43'0 0.0
2015-Jan-22 23:32N 35°13' E 139°43'0 0.0
2015-Jan-22 22:34N 35°13' E 139°43'0 0.0
2015-Jan-22 21:33N 35°13' E 139°43'0 0.0
2015-Jan-22 20:33N 35°13' E 139°43'0 0.0
2015-Jan-22 19:33N 35°13' E 139°43'0 0.0
2015-Jan-22 18:33N 35°13' E 139°43'0 0.0
2015-Jan-22 17:33N 35°13' E 139°43'0 0.0
2015-Jan-22 16:33N 35°13' E 139°43'0 0.0
2015-Jan-22 15:33N 35°13' E 139°43'0 0.0
2015-Jan-22 14:33N 35°13' E 139°43'0 0.0
2015-Jan-22 13:34N 35°13' E 139°43'0 0.0
2015-Jan-22 12:34N 35°13' E 139°43'0 0.0
2015-Jan-22 11:34N 35°13' E 139°43'0 0.0
2015-Jan-22 10:34N 35°13' E 139°43'0 0.0
2015-Jan-22 09:33N 35°13' E 139°43'0 0.0
2015-Jan-22 08:33N 35°13' E 139°43'0 0.0
2015-Jan-22 07:33N 35°13' E 139°43'0 0.0
2015-Jan-22 06:33N 35°13' E 139°43'0 0.0
2015-Jan-22 05:33N 35°13' E 139°43'5 4.9
2015-Jan-22 04:33N 35°18' E 139°44'6 5.9
2015-Jan-22 03:34N 35°23' E 139°40'1010.4
2015-Jan-22 02:33N 35°14' E 139°45'9 8.6
2015-Jan-22 01:33N 35°22' E 139°42'3 3.4
2015-Jan-22 00:33N 35°24' E 139°39'1 0.6
2015-Jan-21 23:33N 35°23' E 139°39'4 5.9
2015-Jan-21 22:50N 35°20' E 139°41'1 8.9
2015-Jan-21 22:46N 35°19' E 139°41'1 5.4
2015-Jan-21 22:33N 35°19' E 139°39'0 0.1
2015-Jan-21 21:33N 35°19' E 139°39'5 4.9
2015-Jan-21 20:33N 35°18' E 139°45'6 6.4
2015-Jan-21 19:33N 35°11' E 139°46'3 3.1
2015-Jan-21 18:33N 35°13' E 139°43'0 0.0
2015-Jan-21 17:33N 35°13' E 139°43'0 0.0
2015-Jan-21 16:33N 35°13' E 139°43'0 0.0
2015-Jan-21 15:33N 35°13' E 139°43'0 0.0
2015-Jan-21 14:33N 35°13' E 139°43'0 0.0
2015-Jan-21 13:32N 35°13' E 139°43'0 0.0
2015-Jan-21 12:33N 35°13' E 139°43'0 0.0
2015-Jan-21 11:33N 35°13' E 139°43'0 0.0
2015-Jan-21 10:33N 35°13' E 139°43'0 0.0
2015-Jan-21 09:33N 35°13' E 139°43'0 0.0
2015-Jan-21 08:33N 35°13' E 139°43'0 0.2
2015-Jan-21 07:34N 35°13' E 139°43'7 6.5
2015-Jan-21 06:32N 35°20' E 139°42'1212.1
2015-Jan-21 05:33N 35°29' E 139°51'6 2.8
2015-Jan-21 03:33N 35°24' E 139°48'6 6.4
2015-Jan-21 02:33N 35°19' E 139°43'1010.1
2015-Jan-21 01:33N 35°10' E 139°47'5 4.6
2015-Jan-21 00:33N 35°13' E 139°43'0 0.1
2015-Jan-20 23:33N 35°13' E 139°43'0 0.0
2015-Jan-20 22:33N 35°13' E 139°43'0 0.0
2015-Jan-20 21:33N 35°13' E 139°43'0 0.0
2015-Jan-20 20:33N 35°13' E 139°43'0 0.0
2015-Jan-20 19:33N 35°13' E 139°43'0 0.0
2015-Jan-20 18:33N 35°13' E 139°43'0 0.0
2015-Jan-20 17:33N 35°13' E 139°43'0 0.0
2015-Jan-20 16:33N 35°13' E 139°43'0 0.0
2015-Jan-20 15:33N 35°13' E 139°43'0 0.0
2015-Jan-20 14:33N 35°13' E 139°43'0 0.0
2015-Jan-20 13:33N 35°13' E 139°43'0 0.0
2015-Jan-20 12:33N 35°13' E 139°43'0 0.0
2015-Jan-20 11:33N 35°13' E 139°43'0 0.0
2015-Jan-20 10:33N 35°13' E 139°43'0 0.0
2015-Jan-20 09:32N 35°13' E 139°43'0 0.0
2015-Jan-20 08:33N 35°13' E 139°43'0 0.0
2015-Jan-20 07:33N 35°13' E 139°43'0 0.0
2015-Jan-20 06:33N 35°13' E 139°43'0 0.0
2015-Jan-20 05:33N 35°13' E 139°43'0 0.0
2015-Jan-20 04:31N 35°13' E 139°43'3 3.3
2015-Jan-20 03:33N 35°12' E 139°46'1211.8
2015-Jan-20 02:34N 35°23' E 139°42'5 5.1
2015-Jan-20 01:33N 35°28' E 139°45'7 5.7
2015-Jan-20 00:21N 35°29' E 139°53'810.5
2015-Jan-19 23:33N 35°23' E 139°46'1111.5
2015-Jan-19 22:33N 35°12' E 139°47'4 3.5
2015-Jan-19 21:33N 35°13' E 139°43'0 0.1
2015-Jan-19 20:33N 35°13' E 139°43'0 0.0
2015-Jan-19 19:33N 35°13' E 139°43'0 0.0
2015-Jan-19 18:33N 35°13' E 139°43'0 0.0
2015-Jan-19 17:33N 35°13' E 139°43'0 0.0
2015-Jan-19 16:33N 35°13' E 139°43'0 0.0
2015-Jan-19 15:33N 35°13' E 139°43'0 0.0
2015-Jan-19 14:33N 35°13' E 139°43'0 0.0
2015-Jan-19 13:32N 35°13' E 139°43'0 0.0
2015-Jan-19 12:33N 35°13' E 139°43'0 0.0
2015-Jan-19 11:33N 35°13' E 139°43'0 0.0
2015-Jan-19 10:33N 35°13' E 139°43'0 0.0
2015-Jan-19 09:33N 35°13' E 139°43'0 0.0
2015-Jan-19 08:33N 35°13' E 139°43'0 0.0
2015-Jan-19 07:33N 35°13' E 139°43'0 0.0
2015-Jan-19 06:33N 35°13' E 139°43'4 4.2
2015-Jan-19 05:33N 35°17' E 139°45'1010.1
2015-Jan-19 04:33N 35°27' E 139°47'9 6.4
2015-Jan-19 03:13N 35°29' E 139°58'8 8.9
2015-Jan-19 02:16N 35°25' E 139°48'810.6
2015-Jan-19 01:33N 35°18' E 139°44'7 6.6
2015-Jan-19 00:33N 35°12' E 139°48'4 4.0
2015-Jan-18 23:32N 35°13' E 139°43'0 0.0
2015-Jan-18 22:33N 35°13' E 139°43'0 0.0
2015-Jan-18 21:33N 35°13' E 139°43'0 0.0
2015-Jan-18 20:33N 35°13' E 139°43'0 0.0
2015-Jan-18 19:33N 35°13' E 139°43'0 0.0
2015-Jan-18 18:33N 35°13' E 139°43'0 0.0
2015-Jan-18 17:33N 35°13' E 139°43'0 0.0
2015-Jan-18 16:33N 35°13' E 139°43'0 0.0
2015-Jan-18 15:32N 35°13' E 139°43'0 0.0
2015-Jan-18 14:33N 35°13' E 139°43'0 0.0
2015-Jan-18 13:33N 35°13' E 139°43'0 0.0
2015-Jan-18 12:33N 35°13' E 139°43'0 0.0
2015-Jan-18 11:33N 35°13' E 139°43'0 0.0
2015-Jan-18 10:33N 35°13' E 139°43'0 0.0
2015-Jan-18 09:32N 35°13' E 139°43'0 0.0
2015-Jan-18 08:30N 35°13' E 139°43'0 0.0
2015-Jan-18 07:25N 35°13' E 139°43'0 0.0
2015-Jan-18 06:33N 35°13' E 139°43'1 0.9
2015-Jan-18 05:33N 35°13' E 139°44'7 6.9
2015-Jan-18 04:33N 35°20' E 139°42'8 8.2
2015-Jan-18 03:33N 35°28' E 139°44'0 0.1
2015-Jan-18 02:33N 35°28' E 139°44'0 0.0
2015-Jan-18 01:33N 35°28' E 139°44'0 0.1
2015-Jan-18 00:33N 35°28' E 139°44'0 0.1
2015-Jan-17 23:33N 35°28' E 139°44'0 0.0
2015-Jan-17 22:33N 35°28' E 139°44'0 0.1
2015-Jan-17 21:33N 35°28' E 139°44'0 0.2
2015-Jan-17 20:33N 35°28' E 139°44'0 0.2
2015-Jan-17 19:33N 35°28' E 139°44'0 0.0
2015-Jan-17 18:32N 35°28' E 139°44'0 0.0
2015-Jan-17 17:33N 35°28' E 139°44'0 0.0
2015-Jan-17 16:33N 35°28' E 139°44'0 0.0
2015-Jan-17 15:33N 35°28' E 139°44'0 0.0
2015-Jan-17 14:33N 35°28' E 139°44'0 0.0
2015-Jan-17 13:33N 35°28' E 139°44'0 0.2
2015-Jan-17 12:33N 35°28' E 139°44'0 0.2
2015-Jan-17 11:33N 35°28' E 139°44'0 0.0
2015-Jan-17 10:33N 35°28' E 139°44'0 0.0
2015-Jan-17 09:33N 35°28' E 139°44'  
Track history (hours):
 
Tides and Currents Weather Stations Pressure Air Temp Water Temp Dewpoint Dewpoint Depression Visibility Wind Speed Wind Dir Waves Ship Positions

Uraga Maru

Last reported at 2015-Jan-27 09:33 UTC. Time now 2015-Jan-27 10:31 UTC.
Position N 35°13' E 139°43'.

Length 40 m; draft 2.8 m.

Type: Tug. MMSI: 431101119.

Date/timePositionNaut miles runAvg speedWind from/ knotsBaromVisibWave heightAir tempDewpointWater temp
2015-Jan-27 09:33N 35°13' E 139°43'0 0.0
2015-Jan-27 08:33N 35°13' E 139°43'0 0.0
2015-Jan-27 07:31N 35°13' E 139°43'3 2.7
2015-Jan-27 06:33N 35°12' E 139°46'9 9.3
2015-Jan-27 05:33N 35°21' E 139°42'7 6.9
2015-Jan-27 04:33N 35°28' E 139°43'0 0.0
2015-Jan-27 03:33N 35°28' E 139°43'0 0.1
2015-Jan-27 02:33N 35°28' E 139°43'0 0.1
2015-Jan-27 01:33N 35°28' E 139°43'5 4.6
2015-Jan-27 00:33N 35°23' E 139°42'10 9.8
2015-Jan-26 23:33N 35°13' E 139°43'0 0.5
2015-Jan-26 22:33N 35°13' E 139°43'0 0.0
2015-Jan-26 21:33N 35°13' E 139°43'0 0.0
2015-Jan-26 20:33N 35°13' E 139°43'0 0.0
2015-Jan-26 19:33N 35°13' E 139°43'0 0.0
2015-Jan-26 18:33N 35°13' E 139°43'0 0.0
2015-Jan-26 17:33N 35°13' E 139°43'0 0.0
2015-Jan-26 16:33N 35°13' E 139°43'0 0.0
2015-Jan-26 15:33N 35°13' E 139°43'0 0.0
2015-Jan-26 14:33N 35°13' E 139°43'0 0.0
2015-Jan-26 13:33N 35°13' E 139°43'0 0.0
2015-Jan-26 12:33N 35°13' E 139°43'0 0.0
2015-Jan-26 11:33N 35°13' E 139°43'0 0.0
2015-Jan-26 10:33N 35°13' E 139°43'0 0.0
2015-Jan-26 09:33N 35°13' E 139°43'0 0.0
2015-Jan-26 08:33N 35°13' E 139°43'0 0.0
2015-Jan-26 07:33N 35°13' E 139°43'0 0.0
2015-Jan-26 06:33N 35°13' E 139°43'0 0.0
2015-Jan-26 05:33N 35°13' E 139°43'0 0.0
2015-Jan-26 04:33N 35°13' E 139°43'0 0.0
2015-Jan-26 03:33N 35°13' E 139°43'0 0.0
2015-Jan-26 02:33N 35°13' E 139°43'0 0.1
2015-Jan-26 01:33N 35°13' E 139°43'5 4.7
2015-Jan-26 00:33N 35°18' E 139°44'1010.1
2015-Jan-25 23:33N 35°28' E 139°45'0 0.2
2015-Jan-25 22:33N 35°28' E 139°45'8 8.0
2015-Jan-25 21:33N 35°20' E 139°43'1110.8
2015-Jan-25 20:33N 35°10' E 139°47'5 5.0
2015-Jan-25 19:33N 35°13' E 139°43'0 0.0
2015-Jan-25 18:33N 35°13' E 139°43'0 0.0
2015-Jan-25 17:30N 35°13' E 139°43'0 0.0
2015-Jan-25 16:33N 35°13' E 139°43'0 0.0
2015-Jan-25 15:33N 35°13' E 139°43'0 0.0
2015-Jan-25 14:33N 35°13' E 139°43'0 0.0
2015-Jan-25 13:33N 35°13' E 139°43'0 0.0
2015-Jan-25 12:31N 35°13' E 139°43'0 0.0
2015-Jan-25 11:25N 35°13' E 139°43'2 2.0
2015-Jan-25 10:33N 35°13' E 139°45'9 9.0
2015-Jan-25 09:33N 35°21' E 139°42'7 6.6
2015-Jan-25 08:32N 35°23' E 139°51'5 5.4
2015-Jan-25 07:34N 35°21' E 139°45'1110.5
2015-Jan-25 06:33N 35°10' E 139°46'1110.8
2015-Jan-25 05:34N 35°20' E 139°42'2 2.0
2015-Jan-25 04:33N 35°19' E 139°44'1010.4
2015-Jan-25 03:33N 35°09' E 139°47'5 5.2
2015-Jan-25 02:33N 35°13' E 139°43'0 0.0
2015-Jan-25 01:33N 35°13' E 139°43'0 0.0
2015-Jan-25 00:33N 35°13' E 139°43'0 0.0
2015-Jan-24 23:33N 35°13' E 139°43'0 0.0
2015-Jan-24 22:33N 35°13' E 139°43'0 0.0
2015-Jan-24 21:33N 35°13' E 139°43'0 0.0
2015-Jan-24 20:33N 35°13' E 139°43'0 0.0
2015-Jan-24 19:31N 35°13' E 139°43'0 0.0
2015-Jan-24 18:33N 35°13' E 139°43'0 0.0
2015-Jan-24 17:33N 35°13' E 139°43'0 0.0
2015-Jan-24 16:33N 35°13' E 139°43'0 0.0
2015-Jan-24 15:33N 35°13' E 139°43'0 0.0
2015-Jan-24 14:33N 35°13' E 139°43'0 0.0
2015-Jan-24 13:33N 35°13' E 139°43'0 0.0
2015-Jan-24 12:33N 35°13' E 139°43'0 0.0
2015-Jan-24 11:33N 35°13' E 139°43'0 0.0
2015-Jan-24 10:33N 35°13' E 139°43'0 0.0
2015-Jan-24 09:33N 35°13' E 139°43'0 0.0
2015-Jan-24 08:33N 35°13' E 139°43'0 0.0
2015-Jan-24 07:33N 35°13' E 139°43'0 0.0
2015-Jan-24 06:33N 35°13' E 139°43'0 0.0
2015-Jan-24 05:33N 35°13' E 139°43'0 0.0
2015-Jan-24 04:33N 35°13' E 139°43'0 0.0
2015-Jan-24 03:33N 35°13' E 139°43'0 0.1
2015-Jan-24 02:33N 35°13' E 139°43'5 4.9
2015-Jan-24 01:33N 35°18' E 139°44'10 9.7
2015-Jan-24 00:33N 35°28' E 139°44'1 0.6
2015-Jan-23 23:33N 35°28' E 139°44'3 2.8
2015-Jan-23 22:33N 35°25' E 139°44'1111.0
2015-Jan-23 21:33N 35°14' E 139°45'7 7.5
2015-Jan-23 20:34N 35°21' E 139°42'4 4.3
2015-Jan-23 19:33N 35°17' E 139°44'4 3.9
2015-Jan-23 18:33N 35°13' E 139°43'0 0.0
2015-Jan-23 17:32N 35°13' E 139°43'0 0.0
2015-Jan-23 16:33N 35°13' E 139°43'0 0.0
2015-Jan-23 15:33N 35°13' E 139°43'0 0.0
2015-Jan-23 14:33N 35°13' E 139°43'0 0.0
2015-Jan-23 13:33N 35°13' E 139°43'0 0.0
2015-Jan-23 12:33N 35°13' E 139°43'2 1.9
2015-Jan-23 11:32N 35°12' E 139°45'8 8.6
2015-Jan-23 10:33N 35°21' E 139°42'3 3.1
2015-Jan-23 09:33N 35°23' E 139°44'0 0.0
2015-Jan-23 08:33N 35°24' E 139°44'5 5.2
2015-Jan-23 07:33N 35°18' E 139°44'7 7.3
2015-Jan-23 06:33N 35°11' E 139°46'3 3.3
2015-Jan-23 05:33N 35°13' E 139°43'0 0.0
2015-Jan-23 04:33N 35°13' E 139°43'8 8.2
2015-Jan-23 03:33N 35°21' E 139°42'1010.4
2015-Jan-23 02:33N 35°12' E 139°47'3 3.0
2015-Jan-23 01:28N 35°13' E 139°43'0 0.1
2015-Jan-23 00:33N 35°13' E 139°43'0 0.0
2015-Jan-22 23:32N 35°13' E 139°43'0 0.0
2015-Jan-22 22:34N 35°13' E 139°43'0 0.0
2015-Jan-22 21:33N 35°13' E 139°43'0 0.0
2015-Jan-22 20:33N 35°13' E 139°43'0 0.0
2015-Jan-22 19:33N 35°13' E 139°43'0 0.0
2015-Jan-22 18:33N 35°13' E 139°43'0 0.0
2015-Jan-22 17:33N 35°13' E 139°43'0 0.0
2015-Jan-22 16:33N 35°13' E 139°43'0 0.0
2015-Jan-22 15:33N 35°13' E 139°43'0 0.0
2015-Jan-22 14:33N 35°13' E 139°43'0 0.0
2015-Jan-22 13:34N 35°13' E 139°43'0 0.0
2015-Jan-22 12:34N 35°13' E 139°43'0 0.0
2015-Jan-22 11:34N 35°13' E 139°43'0 0.0
2015-Jan-22 10:34N 35°13' E 139°43'0 0.0
2015-Jan-22 09:33N 35°13' E 139°43'0 0.0
2015-Jan-22 08:33N 35°13' E 139°43'0 0.0
2015-Jan-22 07:33N 35°13' E 139°43'0 0.0
2015-Jan-22 06:33N 35°13' E 139°43'0 0.0
2015-Jan-22 05:33N 35°13' E 139°43'5 4.9
2015-Jan-22 04:33N 35°18' E 139°44'6 5.9
2015-Jan-22 03:34N 35°23' E 139°40'1010.4
2015-Jan-22 02:33N 35°14' E 139°45'9 8.6
2015-Jan-22 01:33N 35°22' E 139°42'3 3.4
2015-Jan-22 00:33N 35°24' E 139°39'1 0.6
2015-Jan-21 23:33N 35°23' E 139°39'4 5.9
2015-Jan-21 22:50N 35°20' E 139°41'1 8.9
2015-Jan-21 22:46N 35°19' E 139°41'1 5.4
2015-Jan-21 22:33N 35°19' E 139°39'0 0.1
2015-Jan-21 21:33N 35°19' E 139°39'5 4.9
2015-Jan-21 20:33N 35°18' E 139°45'6 6.4
2015-Jan-21 19:33N 35°11' E 139°46'3 3.1
2015-Jan-21 18:33N 35°13' E 139°43'0 0.0
2015-Jan-21 17:33N 35°13' E 139°43'0 0.0
2015-Jan-21 16:33N 35°13' E 139°43'0 0.0
2015-Jan-21 15:33N 35°13' E 139°43'0 0.0
2015-Jan-21 14:33N 35°13' E 139°43'0 0.0
2015-Jan-21 13:32N 35°13' E 139°43'0 0.0
2015-Jan-21 12:33N 35°13' E 139°43'0 0.0
2015-Jan-21 11:33N 35°13' E 139°43'0 0.0
2015-Jan-21 10:33N 35°13' E 139°43'0 0.0
2015-Jan-21 09:33N 35°13' E 139°43'0 0.0
2015-Jan-21 08:33N 35°13' E 139°43'0 0.2
2015-Jan-21 07:34N 35°13' E 139°43'7 6.5
2015-Jan-21 06:32N 35°20' E 139°42'1212.1
2015-Jan-21 05:33N 35°29' E 139°51'6 2.8
2015-Jan-21 03:33N 35°24' E 139°48'6 6.4
2015-Jan-21 02:33N 35°19' E 139°43'1010.1
2015-Jan-21 01:33N 35°10' E 139°47'5 4.6
2015-Jan-21 00:33N 35°13' E 139°43'0 0.1
2015-Jan-20 23:33N 35°13' E 139°43'0 0.0
2015-Jan-20 22:33N 35°13' E 139°43'0 0.0
2015-Jan-20 21:33N 35°13' E 139°43'0 0.0
2015-Jan-20 20:33N 35°13' E 139°43'0 0.0
2015-Jan-20 19:33N 35°13' E 139°43'0 0.0
2015-Jan-20 18:33N 35°13' E 139°43'0 0.0
2015-Jan-20 17:33N 35°13' E 139°43'0 0.0
2015-Jan-20 16:33N 35°13' E 139°43'0 0.0
2015-Jan-20 15:33N 35°13' E 139°43'0 0.0
2015-Jan-20 14:33N 35°13' E 139°43'0 0.0
2015-Jan-20 13:33N 35°13' E 139°43'0 0.0
2015-Jan-20 12:33N 35°13' E 139°43'0 0.0
2015-Jan-20 11:33N 35°13' E 139°43'0 0.0
2015-Jan-20 10:33N 35°13' E 139°43'0 0.0
2015-Jan-20 09:32N 35°13' E 139°43'0 0.0
2015-Jan-20 08:33N 35°13' E 139°43'0 0.0
2015-Jan-20 07:33N 35°13' E 139°43'0 0.0
2015-Jan-20 06:33N 35°13' E 139°43'0 0.0
2015-Jan-20 05:33N 35°13' E 139°43'0 0.0
2015-Jan-20 04:31N 35°13' E 139°43'3 3.3
2015-Jan-20 03:33N 35°12' E 139°46'1211.8
2015-Jan-20 02:34N 35°23' E 139°42'5 5.1
2015-Jan-20 01:33N 35°28' E 139°45'7 5.7
2015-Jan-20 00:21N 35°29' E 139°53'810.5
2015-Jan-19 23:33N 35°23' E 139°46'1111.5
2015-Jan-19 22:33N 35°12' E 139°47'4 3.5
2015-Jan-19 21:33N 35°13' E 139°43'0 0.1
2015-Jan-19 20:33N 35°13' E 139°43'0 0.0
2015-Jan-19 19:33N 35°13' E 139°43'0 0.0
2015-Jan-19 18:33N 35°13' E 139°43'0 0.0
2015-Jan-19 17:33N 35°13' E 139°43'0 0.0
2015-Jan-19 16:33N 35°13' E 139°43'0 0.0
2015-Jan-19 15:33N 35°13' E 139°43'0 0.0
2015-Jan-19 14:33N 35°13' E 139°43'0 0.0
2015-Jan-19 13:32N 35°13' E 139°43'0 0.0
2015-Jan-19 12:33N 35°13' E 139°43'0 0.0
2015-Jan-19 11:33N 35°13' E 139°43'0 0.0
2015-Jan-19 10:33N 35°13' E 139°43'0 0.0
2015-Jan-19 09:33N 35°13' E 139°43'0 0.0
2015-Jan-19 08:33N 35°13' E 139°43'0 0.0
2015-Jan-19 07:33N 35°13' E 139°43'0 0.0
2015-Jan-19 06:33N 35°13' E 139°43'4 4.2
2015-Jan-19 05:33N 35°17' E 139°45'1010.1
2015-Jan-19 04:33N 35°27' E 139°47'9 6.4
2015-Jan-19 03:13N 35°29' E 139°58'8 8.9
2015-Jan-19 02:16N 35°25' E 139°48'810.6
2015-Jan-19 01:33N 35°18' E 139°44'7 6.6
2015-Jan-19 00:33N 35°12' E 139°48'4 4.0
2015-Jan-18 23:32N 35°13' E 139°43'0 0.0
2015-Jan-18 22:33N 35°13' E 139°43'0 0.0
2015-Jan-18 21:33N 35°13' E 139°43'0 0.0
2015-Jan-18 20:33N 35°13' E 139°43'0 0.0
2015-Jan-18 19:33N 35°13' E 139°43'0 0.0
2015-Jan-18 18:33N 35°13' E 139°43'0 0.0
2015-Jan-18 17:33N 35°13' E 139°43'0 0.0
2015-Jan-18 16:33N 35°13' E 139°43'0 0.0
2015-Jan-18 15:32N 35°13' E 139°43'0 0.0
2015-Jan-18 14:33N 35°13' E 139°43'0 0.0
2015-Jan-18 13:33N 35°13' E 139°43'0 0.0
2015-Jan-18 12:33N 35°13' E 139°43'0 0.0
2015-Jan-18 11:33N 35°13' E 139°43'0 0.0
2015-Jan-18 10:33N 35°13' E 139°43'0 0.0
2015-Jan-18 09:32N 35°13' E 139°43'0 0.0
2015-Jan-18 08:30N 35°13' E 139°43'0 0.0
2015-Jan-18 07:25N 35°13' E 139°43'0 0.0
2015-Jan-18 06:33N 35°13' E 139°43'1 0.9
2015-Jan-18 05:33N 35°13' E 139°44'7 6.9
2015-Jan-18 04:33N 35°20' E 139°42'8 8.2
2015-Jan-18 03:33N 35°28' E 139°44'0 0.1
2015-Jan-18 02:33N 35°28' E 139°44'0 0.0
2015-Jan-18 01:33N 35°28' E 139°44'0 0.1
2015-Jan-18 00:33N 35°28' E 139°44'0 0.1
2015-Jan-17 23:33N 35°28' E 139°44'0 0.0
2015-Jan-17 22:33N 35°28' E 139°44'0 0.1
2015-Jan-17 21:33N 35°28' E 139°44'0 0.2
2015-Jan-17 20:33N 35°28' E 139°44'0 0.2
2015-Jan-17 19:33N 35°28' E 139°44'0 0.0
2015-Jan-17 18:32N 35°28' E 139°44'0 0.0
2015-Jan-17 17:33N 35°28' E 139°44'0 0.0
2015-Jan-17 16:33N 35°28' E 139°44'0 0.0
2015-Jan-17 15:33N 35°28' E 139°44'0 0.0
2015-Jan-17 14:33N 35°28' E 139°44'0 0.0
2015-Jan-17 13:33N 35°28' E 139°44'0 0.2
2015-Jan-17 12:33N 35°28' E 139°44'0 0.2
2015-Jan-17 11:33N 35°28' E 139°44'0 0.0
2015-Jan-17 10:33N 35°28' E 139°44'0 0.0
2015-Jan-17 09:33N 35°28' E 139°44'  

Dump ship's entire track history